Chemical Pioneer — KAFO — position and weather

sailwx.info

Track history (hours):
 
Tides and Currents Weather Stations Pressure Air Temp Water Temp Dewpoint Dewpoint Depression Visibility Wind Speed Wind Dir Waves Ship Positions

Chemical Pioneer

Owner: US Shipping Corp, Edison, NJ. More information available from US FCC via Universal Licensing System and Coast Guard Vessel Documentation Center.

Last reported at 2015-Apr-16 07:29 UTC. Time now 2015-Apr-18 04:59 UTC.
Position N 40°30' W 074°15'.

Type: Tanker. MMSI: 366032000.

Date/timePositionNaut miles runAvg speedWind from/ knotsBaromVisibWave heightAir tempDewpointWater temp
2015-Apr-16 07:29N 40°30' W 074°15'1111.5
2015-Apr-16 06:34N 40°29' W 074°01'6 2.1
2015-Apr-16 03:26N 40°24' W 073°55'0 0.0
2015-Apr-16 02:29N 40°24' W 073°55'0 0.0
2015-Apr-16 01:23N 40°24' W 073°55'0 0.0
2015-Apr-16 00:20N 40°24' W 073°55'0 0.0
2015-Apr-15 23:29N 40°24' W 073°56'0 0.0
2015-Apr-15 20:32N 40°24' W 073°56'0 0.0
2015-Apr-15 17:31N 40°24' W 073°56'0 0.0
2015-Apr-15 16:32N 40°24' W 073°56'0 0.0
2015-Apr-15 15:24N 40°24' W 073°56'0 0.1
2015-Apr-15 14:33N 40°24' W 073°55'2 2.0
2015-Apr-15 13:29N 40°23' W 073°53'9 9.3
2015-Apr-15 12:31N 40°16' W 073°45'1010.1
2015-Apr-15 11:31N 40°06' W 073°44'1010.4
2015-Apr-15 10:32N 39°56' W 073°43'1010.1
2015-Apr-15 09:33N 39°46' W 073°41'1010.4
2015-Apr-15 08:33N 39°36' W 073°41'1111.0
2015-Apr-15 07:33N 39°25' W 073°41'1111.1
2015-Apr-15 06:33N 39°17' W 073°52'2311.5
2015-Apr-15 04:33N 39°01' W 074°13'1111.1
2015-Apr-15 03:33N 38°53' W 074°23'1110.8
2015-Apr-15 02:33N 38°46' W 074°34'9 9.5
2015-Apr-15 01:33N 38°46' W 074°45'10 9.8
2015-Apr-15 00:33N 38°47' W 074°58'9 9.4
2015-Apr-14 23:33N 38°54' W 075°05'1514.6
2015-Apr-14 22:33N 39°08' W 075°13'1414.2
2015-Apr-14 21:34N 39°19' W 075°24'1413.8
2015-Apr-14 20:33N 39°31' W 075°33'1313.4
2015-Apr-14 19:34N 39°44' W 075°30'1212.4
2015-Apr-14 18:33N 39°51' W 075°17'9 8.5
2015-Apr-14 17:33N 39°57' W 075°08'3 3.1
2015-Apr-14 16:31N 39°59' W 075°05'0 0.0
2015-Apr-14 15:31N 39°59' W 075°05'0 0.0
2015-Apr-14 14:31N 39°59' W 075°05'0 0.0
2015-Apr-14 13:31N 39°59' W 075°05'0 0.0
2015-Apr-14 12:31N 39°59' W 075°05'0 0.0
2015-Apr-14 11:31N 39°59' W 075°05'0 0.0
2015-Apr-14 10:31N 39°59' W 075°05'0 0.0
2015-Apr-14 09:31N 39°59' W 075°05'0 0.0
2015-Apr-14 08:31N 39°59' W 075°05'0 0.0
2015-Apr-14 07:31N 39°59' W 075°05'0 0.0
2015-Apr-14 06:31N 39°59' W 075°05'0 0.0
2015-Apr-14 05:31N 39°59' W 075°05'0 0.0
2015-Apr-14 04:31N 39°59' W 075°05'0 0.0
2015-Apr-14 03:31N 39°59' W 075°05'0 0.0
2015-Apr-14 02:31N 39°59' W 075°05'0 0.0
2015-Apr-14 01:32N 39°59' W 075°05'0 0.0
2015-Apr-14 00:31N 39°59' W 075°05'0 0.0
2015-Apr-13 23:31N 39°59' W 075°05'0 0.0
2015-Apr-13 22:31N 39°59' W 075°05'0 0.0
2015-Apr-13 21:31N 39°59' W 075°05'0 0.0
2015-Apr-13 20:31N 39°59' W 075°05'0 0.0
2015-Apr-13 19:31N 39°59' W 075°05'0 0.0
2015-Apr-13 18:31N 39°59' W 075°05'0 0.0
2015-Apr-13 17:28N 39°59' W 075°05'0 0.0
2015-Apr-13 16:31N 39°59' W 075°05'  
2015-Apr-11 11:33N 39°58' W 075°07'54 7.7
2015-Apr-11 04:31N 39°04' W 075°10'92 8.4
2015-Apr-10 17:32N 38°55' W 073°12'9 8.9
2015-Apr-10 16:34N 38°57' W 073°02'46 7.6
2015-Apr-10 10:30N 39°31' W 073°40'8 8.0
2015-Apr-10 09:33N 39°38' W 073°45'7 7.3
2015-Apr-10 08:33N 39°44' W 073°50'7 7.3
2015-Apr-10 07:33N 39°51' W 073°51'8 7.7
2015-Apr-10 06:33N 39°59' W 073°50'22 7.2
2015-Apr-10 03:28N 40°21' W 073°51'7 7.5
2015-Apr-10 02:33N 40°27' W 073°56'1410.6
2015-Apr-10 01:16N 40°30' W 074°13'4 5.2
2015-Apr-10 00:33N 40°33' W 074°13'2 1.4
2015-Apr-09 23:10N 40°35' W 074°12'0 0.0
2015-Apr-09 20:16N 40°35' W 074°12'0 0.0
2015-Apr-09 17:10N 40°35' W 074°12'0 0.0
2015-Apr-09 15:22N 40°35' W 074°12'0 0.0
2015-Apr-08 23:24N 40°35' W 074°12'4 4.2
2015-Apr-08 22:34N 40°39' W 074°11'3 3.1
2015-Apr-08 21:32N 40°39' W 074°07'0 0.0
2015-Apr-08 20:32N 40°39' W 074°07'0 0.0
2015-Apr-08 19:32N 40°39' W 074°07'0 0.0
2015-Apr-08 18:26N 40°39' W 074°07'0 0.0
2015-Apr-08 17:32N 40°39' W 074°07'0 0.0
2015-Apr-08 16:20N 40°39' W 074°07'0 0.0
2015-Apr-08 15:32N 40°39' W 074°07'0 0.0
2015-Apr-08 14:32N 40°39' W 074°07'0 0.0
2015-Apr-08 13:26N 40°39' W 074°07'0 0.0
2015-Apr-08 12:32N 40°39' W 074°07'0 0.0
2015-Apr-08 11:29N 40°39' W 074°07'0 0.0
2015-Apr-08 03:33N 40°39' W 074°06'0 0.4
2015-Apr-08 02:32N 40°39' W 074°06'0 0.0
2015-Apr-08 01:32N 40°39' W 074°06'0 0.0
2015-Apr-08 00:08N 40°39' W 074°06'0 0.0
2015-Apr-07 23:26N 40°39' W 074°06'0 0.0
2015-Apr-07 22:14N 40°39' W 074°06'0 0.0
2015-Apr-07 20:08N 40°39' W 074°06'0 0.0
2015-Apr-07 19:26N 40°39' W 074°06'0 0.0
2015-Apr-07 18:26N 40°39' W 074°06'0 0.0
2015-Apr-07 17:08N 40°39' W 074°06'0 0.0
2015-Apr-07 16:32N 40°39' W 074°06'0 0.0
2015-Apr-07 15:08N 40°39' W 074°06'0 0.0
2015-Apr-07 14:26N 40°39' W 074°06'0 0.0
2015-Apr-07 13:32N 40°39' W 074°06'0 0.0
2015-Apr-07 12:26N 40°39' W 074°06'0 0.0
2015-Apr-07 11:14N 40°39' W 074°06'0 0.0
2015-Apr-07 10:14N 40°39' W 074°06'0 0.0
2015-Apr-07 09:14N 40°39' W 074°06'0 0.0
2015-Apr-07 08:32N 40°39' W 074°06'0 0.0
2015-Apr-07 07:20N 40°39' W 074°06'0 0.0
2015-Apr-07 06:32N 40°39' W 074°06'0 0.0
2015-Apr-07 05:26N 40°39' W 074°06'0 0.0
2015-Apr-07 04:32N 40°39' W 074°06'0 0.0
2015-Apr-07 03:14N 40°39' W 074°06'0 0.0
2015-Apr-07 02:26N 40°39' W 074°06'0 0.0
2015-Apr-07 01:26N 40°39' W 074°06'0 0.0
2015-Apr-07 00:29N 40°39' W 074°06'0 0.0
2015-Apr-06 23:29N 40°39' W 074°06'0 0.0
2015-Apr-06 22:32N 40°39' W 074°06'0 0.0
2015-Apr-06 18:33N 40°39' W 074°06'6 5.7
2015-Apr-06 17:33N 40°34' W 074°02'1010.4
2015-Apr-06 16:33N 40°28' W 073°51'9 9.1
2015-Apr-06 15:33N 40°19' W 073°46'1010.6
2015-Apr-06 14:33N 40°09' W 073°45'1615.3
2015-Apr-06 13:32N 39°53' W 073°42'1515.1
2015-Apr-06 12:33N 39°39' W 073°44'1615.4
2015-Apr-06 11:33N 39°24' W 073°49'1715.6
2015-Apr-06 10:26N 39°07' W 073°54'  
Track history (hours):
 
Tides and Currents Weather Stations Pressure Air Temp Water Temp Dewpoint Dewpoint Depression Visibility Wind Speed Wind Dir Waves Ship Positions

Chemical Pioneer

Owner: US Shipping Corp, Edison, NJ. More information available from US FCC via Universal Licensing System and Coast Guard Vessel Documentation Center.

Last reported at 2015-Apr-16 07:29 UTC. Time now 2015-Apr-18 04:59 UTC.
Position N 40°30' W 074°15'.

Type: Tanker. MMSI: 366032000.

Date/timePositionNaut miles runAvg speedWind from/ knotsBaromVisibWave heightAir tempDewpointWater temp
2015-Apr-16 07:29N 40°30' W 074°15'1111.5
2015-Apr-16 06:34N 40°29' W 074°01'6 2.1
2015-Apr-16 03:26N 40°24' W 073°55'0 0.0
2015-Apr-16 02:29N 40°24' W 073°55'0 0.0
2015-Apr-16 01:23N 40°24' W 073°55'0 0.0
2015-Apr-16 00:20N 40°24' W 073°55'0 0.0
2015-Apr-15 23:29N 40°24' W 073°56'0 0.0
2015-Apr-15 20:32N 40°24' W 073°56'0 0.0
2015-Apr-15 17:31N 40°24' W 073°56'0 0.0
2015-Apr-15 16:32N 40°24' W 073°56'0 0.0
2015-Apr-15 15:24N 40°24' W 073°56'0 0.1
2015-Apr-15 14:33N 40°24' W 073°55'2 2.0
2015-Apr-15 13:29N 40°23' W 073°53'9 9.3
2015-Apr-15 12:31N 40°16' W 073°45'1010.1
2015-Apr-15 11:31N 40°06' W 073°44'1010.4
2015-Apr-15 10:32N 39°56' W 073°43'1010.1
2015-Apr-15 09:33N 39°46' W 073°41'1010.4
2015-Apr-15 08:33N 39°36' W 073°41'1111.0
2015-Apr-15 07:33N 39°25' W 073°41'1111.1
2015-Apr-15 06:33N 39°17' W 073°52'2311.5
2015-Apr-15 04:33N 39°01' W 074°13'1111.1
2015-Apr-15 03:33N 38°53' W 074°23'1110.8
2015-Apr-15 02:33N 38°46' W 074°34'9 9.5
2015-Apr-15 01:33N 38°46' W 074°45'10 9.8
2015-Apr-15 00:33N 38°47' W 074°58'9 9.4
2015-Apr-14 23:33N 38°54' W 075°05'1514.6
2015-Apr-14 22:33N 39°08' W 075°13'1414.2
2015-Apr-14 21:34N 39°19' W 075°24'1413.8
2015-Apr-14 20:33N 39°31' W 075°33'1313.4
2015-Apr-14 19:34N 39°44' W 075°30'1212.4
2015-Apr-14 18:33N 39°51' W 075°17'9 8.5
2015-Apr-14 17:33N 39°57' W 075°08'3 3.1
2015-Apr-14 16:31N 39°59' W 075°05'0 0.0
2015-Apr-14 15:31N 39°59' W 075°05'0 0.0
2015-Apr-14 14:31N 39°59' W 075°05'0 0.0
2015-Apr-14 13:31N 39°59' W 075°05'0 0.0
2015-Apr-14 12:31N 39°59' W 075°05'0 0.0
2015-Apr-14 11:31N 39°59' W 075°05'0 0.0
2015-Apr-14 10:31N 39°59' W 075°05'0 0.0
2015-Apr-14 09:31N 39°59' W 075°05'0 0.0
2015-Apr-14 08:31N 39°59' W 075°05'0 0.0
2015-Apr-14 07:31N 39°59' W 075°05'0 0.0
2015-Apr-14 06:31N 39°59' W 075°05'0 0.0
2015-Apr-14 05:31N 39°59' W 075°05'0 0.0
2015-Apr-14 04:31N 39°59' W 075°05'0 0.0
2015-Apr-14 03:31N 39°59' W 075°05'0 0.0
2015-Apr-14 02:31N 39°59' W 075°05'0 0.0
2015-Apr-14 01:32N 39°59' W 075°05'0 0.0
2015-Apr-14 00:31N 39°59' W 075°05'0 0.0
2015-Apr-13 23:31N 39°59' W 075°05'0 0.0
2015-Apr-13 22:31N 39°59' W 075°05'0 0.0
2015-Apr-13 21:31N 39°59' W 075°05'0 0.0
2015-Apr-13 20:31N 39°59' W 075°05'0 0.0
2015-Apr-13 19:31N 39°59' W 075°05'0 0.0
2015-Apr-13 18:31N 39°59' W 075°05'0 0.0
2015-Apr-13 17:28N 39°59' W 075°05'0 0.0
2015-Apr-13 16:31N 39°59' W 075°05'  
2015-Apr-11 11:33N 39°58' W 075°07'54 7.7
2015-Apr-11 04:31N 39°04' W 075°10'92 8.4
2015-Apr-10 17:32N 38°55' W 073°12'9 8.9
2015-Apr-10 16:34N 38°57' W 073°02'46 7.6
2015-Apr-10 10:30N 39°31' W 073°40'8 8.0
2015-Apr-10 09:33N 39°38' W 073°45'7 7.3
2015-Apr-10 08:33N 39°44' W 073°50'7 7.3
2015-Apr-10 07:33N 39°51' W 073°51'8 7.7
2015-Apr-10 06:33N 39°59' W 073°50'22 7.2
2015-Apr-10 03:28N 40°21' W 073°51'7 7.5
2015-Apr-10 02:33N 40°27' W 073°56'1410.6
2015-Apr-10 01:16N 40°30' W 074°13'4 5.2
2015-Apr-10 00:33N 40°33' W 074°13'2 1.4
2015-Apr-09 23:10N 40°35' W 074°12'0 0.0
2015-Apr-09 20:16N 40°35' W 074°12'0 0.0
2015-Apr-09 17:10N 40°35' W 074°12'0 0.0
2015-Apr-09 15:22N 40°35' W 074°12'0 0.0
2015-Apr-08 23:24N 40°35' W 074°12'4 4.2
2015-Apr-08 22:34N 40°39' W 074°11'3 3.1
2015-Apr-08 21:32N 40°39' W 074°07'0 0.0
2015-Apr-08 20:32N 40°39' W 074°07'0 0.0
2015-Apr-08 19:32N 40°39' W 074°07'0 0.0
2015-Apr-08 18:26N 40°39' W 074°07'0 0.0
2015-Apr-08 17:32N 40°39' W 074°07'0 0.0
2015-Apr-08 16:20N 40°39' W 074°07'0 0.0
2015-Apr-08 15:32N 40°39' W 074°07'0 0.0
2015-Apr-08 14:32N 40°39' W 074°07'0 0.0
2015-Apr-08 13:26N 40°39' W 074°07'0 0.0
2015-Apr-08 12:32N 40°39' W 074°07'0 0.0
2015-Apr-08 11:29N 40°39' W 074°07'0 0.0
2015-Apr-08 03:33N 40°39' W 074°06'0 0.4
2015-Apr-08 02:32N 40°39' W 074°06'0 0.0
2015-Apr-08 01:32N 40°39' W 074°06'0 0.0
2015-Apr-08 00:08N 40°39' W 074°06'0 0.0
2015-Apr-07 23:26N 40°39' W 074°06'0 0.0
2015-Apr-07 22:14N 40°39' W 074°06'0 0.0
2015-Apr-07 20:08N 40°39' W 074°06'0 0.0
2015-Apr-07 19:26N 40°39' W 074°06'0 0.0
2015-Apr-07 18:26N 40°39' W 074°06'0 0.0
2015-Apr-07 17:08N 40°39' W 074°06'0 0.0
2015-Apr-07 16:32N 40°39' W 074°06'0 0.0
2015-Apr-07 15:08N 40°39' W 074°06'0 0.0
2015-Apr-07 14:26N 40°39' W 074°06'0 0.0
2015-Apr-07 13:32N 40°39' W 074°06'0 0.0
2015-Apr-07 12:26N 40°39' W 074°06'0 0.0
2015-Apr-07 11:14N 40°39' W 074°06'0 0.0
2015-Apr-07 10:14N 40°39' W 074°06'0 0.0
2015-Apr-07 09:14N 40°39' W 074°06'0 0.0
2015-Apr-07 08:32N 40°39' W 074°06'0 0.0
2015-Apr-07 07:20N 40°39' W 074°06'0 0.0
2015-Apr-07 06:32N 40°39' W 074°06'0 0.0
2015-Apr-07 05:26N 40°39' W 074°06'0 0.0
2015-Apr-07 04:32N 40°39' W 074°06'0 0.0
2015-Apr-07 03:14N 40°39' W 074°06'0 0.0
2015-Apr-07 02:26N 40°39' W 074°06'0 0.0
2015-Apr-07 01:26N 40°39' W 074°06'0 0.0
2015-Apr-07 00:29N 40°39' W 074°06'0 0.0
2015-Apr-06 23:29N 40°39' W 074°06'0 0.0
2015-Apr-06 22:32N 40°39' W 074°06'0 0.0
2015-Apr-06 18:33N 40°39' W 074°06'6 5.7
2015-Apr-06 17:33N 40°34' W 074°02'1010.4
2015-Apr-06 16:33N 40°28' W 073°51'9 9.1
2015-Apr-06 15:33N 40°19' W 073°46'1010.6
2015-Apr-06 14:33N 40°09' W 073°45'1615.3
2015-Apr-06 13:32N 39°53' W 073°42'1515.1
2015-Apr-06 12:33N 39°39' W 073°44'1615.4
2015-Apr-06 11:33N 39°24' W 073°49'1715.6
2015-Apr-06 10:26N 39°07' W 073°54'  

Dump ship's entire track history